Time;durP1;ratioP1;P1;durP2;ratioP2;P2;SDS_P1;SDS_P2;PMS_P1;PMS_P2;Temp;Humidity;BMP_temperature;BMP_pressure;BME280_temperature;BME280_humidity;BME280_pressure;Samples;Min_cycle;Max_cycle;Signal;HPM_P1;HPM_P2
2021/08/10 00:00:46;;;;;;;;;4.33;3.67;;;;;20.69;57.16;101412.25;5060510;28;47069;-94
2021/08/10 00:03:11;;;;;;;;;4.00;3.67;;;;;20.62;57.13;101409.69;5061617;28;45388;-96
2021/08/10 00:05:37;;;;;;;;;3.33;3.33;;;;;20.51;56.73;101400.06;5063108;28;45501;-93
2021/08/10 00:08:03;;;;;;;;;4.00;3.00;;;;;20.62;56.98;101407.91;5066441;28;45369;-93
2021/08/10 00:10:29;;;;;;;;;6.00;4.00;;;;;20.58;56.98;101406.19;5065653;28;47150;-93
2021/08/10 00:12:55;;;;;;;;;3.33;3.33;;;;;20.62;56.72;101407.03;5069622;28;45291;-93
2021/08/10 00:15:20;;;;;;;;;3.33;3.33;;;;;20.61;57.26;101400.78;5062916;28;45382;-93
2021/08/10 00:17:46;;;;;;;;;3.50;1.50;;;;;20.52;56.90;101390.25;5064031;28;45600;-92
2021/08/10 00:20:15;;;;;;;;;7.33;4.33;;;;;20.56;57.30;101394.66;5063139;28;46703;-92
2021/08/10 00:22:40;;;;;;;;;4.00;4.00;;;;;20.62;57.41;101399.00;5067840;28;45783;-92
2021/08/10 00:25:10;;;;;;;;;4.67;3.00;;;;;20.51;57.26;101378.69;5069833;28;45346;-92
2021/08/10 00:27:35;;;;;;;;;5.67;4.67;;;;;20.51;57.15;101378.69;5073166;28;45366;-91
2021/08/10 00:30:01;;;;;;;;;6.00;3.33;;;;;20.59;56.94;101414.19;5069088;28;47249;-93
2021/08/10 00:32:28;;;;;;;;;4.00;4.00;;;;;20.46;56.85;101385.88;5071774;28;44836;-93
2021/08/10 00:34:54;;;;;;;;;5.00;3.67;;;;;20.43;56.83;101386.78;5072964;28;45357;-94
2021/08/10 00:37:19;;;;;;;;;3.67;3.00;;;;;20.43;57.24;101377.91;5067218;28;45413;-94
2021/08/10 00:39:45;;;;;;;;;6.67;3.67;;;;;20.59;57.49;101405.28;5071096;28;47233;-92
2021/08/10 00:42:12;;;;;;;;;5.33;4.00;;;;;20.55;57.44;101400.88;5074261;28;45355;-91
2021/08/10 00:44:38;;;;;;;;;3.00;3.00;;;;;20.48;57.18;101379.59;5066372;28;44768;-95
2021/08/10 00:47:09;;;;;;;;;5.00;3.00;;;;;20.55;57.29;101379.50;5065246;28;44772;-93
2021/08/10 00:49:35;;;;;;;;;3.67;3.00;;;;;20.46;56.98;101378.75;5062818;28;46603;-93
2021/08/10 00:52:07;;;;;;;;;3.33;3.33;;;;;20.53;57.15;101403.59;5062461;28;45898;-94
2021/08/10 00:54:33;;;;;;;;;6.33;3.33;;;;;20.50;57.34;101402.72;5061749;28;45243;-93
2021/08/10 00:56:58;;;;;;;;;4.00;4.00;;;;;20.46;57.67;101397.44;5046877;28;45311;-94
2021/08/10 00:59:25;;;;;;;;;3.00;3.00;;;;;20.55;57.64;101417.78;5063928;28;47046;-95
2021/08/10 01:01:51;;;;;;;;;7.33;3.00;;;;;20.46;58.04;101408.13;5060839;28;45416;-93
2021/08/10 01:04:17;;;;;;;;;6.00;4.00;;;;;20.45;58.15;101413.47;5060711;28;45401;-93
2021/08/10 01:07:09;;;;;;;;;2.33;2.33;;;;;20.53;57.88;101430.28;5060115;28;45373;-94
2021/08/10 01:10:00;;;;;;;;;3.00;3.00;;;;;20.50;58.45;101438.31;5061486;28;45228;-93
2021/08/10 01:12:34;;;;;;;;;4.00;4.00;;;;;20.28;58.24;101411.03;5051391;28;45519;-94
2021/08/10 01:15:14;;;;;;;;;6.00;6.00;;;;;20.33;58.81;101434.09;5060251;28;45469;-94
2021/08/10 01:17:50;;;;;;;;;5.00;5.00;;;;;20.41;59.24;101447.34;5059218;28;45593;-95
2021/08/10 01:20:31;;;;;;;;;4.33;4.00;;;;;20.38;60.36;101446.50;5058212;28;47144;-92
2021/08/10 01:23:06;;;;;;;;;5.00;3.00;;;;;20.31;60.13;101440.34;5057553;28;45419;-95
2021/08/10 01:25:42;;;;;;;;;6.33;4.67;;;;;20.31;60.83;101446.56;5057126;28;45490;-95
2021/08/10 01:28:32;;;;;;;;;5.00;4.00;;;;;20.30;61.69;101442.16;5057269;28;45509;-92
2021/08/10 01:31:09;;;;;;;;;7.00;4.00;;;;;20.25;61.04;101434.19;5056868;28;47111;-93
2021/08/10 01:33:43;;;;;;;;;7.00;7.00;;;;;20.08;61.79;101409.44;5056816;28;45426;-94
2021/08/10 01:36:10;;;;;;;;;8.33;5.00;;;;;20.02;61.26;101407.72;5057185;28;45299;-93
2021/08/10 01:38:39;;;;;;;;;2.67;2.00;;;;;20.02;62.01;101411.28;5059800;28;45247;-92
2021/08/10 01:41:05;;;;;;;;;5.33;5.33;;;;;19.95;62.73;101406.91;5059277;28;47386;-93
2021/08/10 01:43:33;;;;;;;;;5.00;4.67;;;;;19.96;62.43;101408.69;5059499;28;45673;-93
2021/08/10 01:46:11;;;;;;;;;5.00;5.00;;;;;19.90;62.85;101398.09;5059888;28;45501;-94
2021/08/10 01:48:40;;;;;;;;;3.00;3.00;;;;;20.01;63.23;101424.63;5059633;28;45342;-93
2021/08/10 01:51:17;;;;;;;;;;;;;;;;;;;;;
2021/08/10 01:53:43;;;;;;;;;5.00;5.00;;;;;19.82;63.06;101402.63;5059367;28;72040;-95
2021/08/10 01:56:10;;;;;;;;;4.67;4.33;;;;;19.79;63.60;101411.53;5059628;28;45481;-93
2021/08/10 01:58:40;;;;;;;;;6.00;6.00;;;;;19.73;63.91;101396.50;5060335;28;45355;-94
2021/08/10 02:01:08;;;;;;;;;5.67;5.67;;;;;19.77;64.62;101418.69;5059140;28;47180;-94
2021/08/10 02:03:35;;;;;;;;;8.33;4.33;;;;;19.72;64.38;101420.50;5059198;28;46070;-96
2021/08/10 02:06:03;;;;;;;;;5.00;5.00;;;;;19.71;64.28;101430.28;5060075;28;45393;-94
2021/08/10 02:08:31;;;;;;;;;4.33;3.67;;;;;19.79;64.57;101449.78;5060311;28;45338;-94
2021/08/10 02:10:57;;;;;;;;;5.33;4.33;;;;;19.61;64.35;101418.81;5059357;28;46898;-93
2021/08/10 02:13:23;;;;;;;;;4.33;4.33;;;;;19.64;65.20;101429.47;5059722;28;46076;-94
2021/08/10 02:15:49;;;;;;;;;4.33;4.00;;;;;19.70;64.98;101441.84;5059467;28;45510;-96
2021/08/10 02:18:22;;;;;;;;;5.67;4.00;;;;;19.57;65.02;101419.75;5060982;28;45325;-93
2021/08/10 02:20:51;;;;;;;;;4.67;3.00;;;;;19.58;65.39;101426.84;5059634;28;47311;-92
2021/08/10 02:23:24;;;;;;;;;7.33;6.00;;;;;19.59;65.67;101422.38;5061059;28;45973;-91
2021/08/10 02:25:52;;;;;;;;;6.00;4.33;;;;;19.61;65.62;101425.91;5059961;28;45488;-92
2021/08/10 02:28:30;;;;;;;;;4.00;3.00;;;;;19.48;65.60;101410.03;5061563;28;45157;-92
2021/08/10 02:31:02;;;;;;;;;4.33;4.33;;;;;19.47;66.38;101410.94;5059437;28;47803;-93
2021/08/10 02:33:31;;;;;;;;;4.33;4.33;;;;;19.43;66.62;101402.09;5059359;28;45382;-91
2021/08/10 02:35:59;;;;;;;;;6.67;5.00;;;;;19.44;66.23;101411.84;5059404;28;45442;-92
2021/08/10 02:38:35;;;;;;;;;6.00;5.00;;;;;19.47;66.49;101418.94;5060419;28;45582;-93
2021/08/10 02:41:07;;;;;;;;;5.00;5.00;;;;;19.32;66.31;101394.19;5059579;28;47291;-95
2021/08/10 02:43:41;;;;;;;;;6.67;6.67;;;;;19.47;66.84;101426.06;5060712;28;45521;-92
2021/08/10 02:46:10;;;;;;;;;3.00;3.00;;;;;19.46;67.00;101418.97;5063947;28;45385;-92
2021/08/10 02:48:35;;;;;;;;;8.00;6.00;;;;;19.32;67.25;101395.97;5064459;28;45210;-91
2021/08/10 02:51:01;;;;;;;;;5.00;3.00;;;;;19.38;66.74;101411.91;5062125;28;48120;-93
2021/08/10 02:53:28;;;;;;;;;4.67;4.33;;;;;19.28;66.97;101396.91;5059327;28;45401;-93
2021/08/10 02:56:14;;;;;;;;;4.00;4.00;;;;;19.41;67.48;101421.66;5060710;28;45325;-92
2021/08/10 02:58:46;;;;;;;;;3.33;3.00;;;;;19.36;67.72;101410.16;5059087;28;45433;-94
2021/08/10 03:01:18;;;;;;;;;5.33;5.33;;;;;19.25;67.44;101388.94;5058948;28;48253;-92
2021/08/10 03:03:47;;;;;;;;;6.67;4.67;;;;;19.40;67.87;101417.22;5059215;28;45796;-92
2021/08/10 03:06:21;;;;;;;;;5.00;4.67;;;;;19.25;67.61;101395.13;5059918;28;45538;-92
2021/08/10 03:08:54;;;;;;;;;8.00;4.00;;;;;19.27;67.72;101387.16;5060604;28;45224;-92
2021/08/10 03:11:22;;;;;;;;;4.33;4.00;;;;;19.31;67.64;101397.75;5059470;28;48237;-92
2021/08/10 03:13:50;;;;;;;;;6.00;6.00;;;;;19.19;68.22;101384.53;5060078;28;45199;-93
2021/08/10 03:16:23;;;;;;;;;8.00;6.00;;;;;19.32;68.45;101418.19;5058955;28;45248;-93
2021/08/10 03:18:52;;;;;;;;;4.33;4.00;;;;;19.32;68.45;101433.28;5058824;28;45219;-94
2021/08/10 03:21:23;;;;;;;;;5.00;4.67;;;;;19.21;67.92;101399.59;5061739;28;47255;-91
2021/08/10 03:23:54;;;;;;;;;8.00;5.00;;;;;19.17;68.19;101394.31;5070537;28;44816;-92
2021/08/10 03:26:22;;;;;;;;;3.00;3.00;;;;;19.17;68.03;101396.97;5072443;28;45322;-94
2021/08/10 03:28:50;;;;;;;;;6.67;3.67;;;;;19.28;68.18;101419.09;5079926;27;44799;-92
2021/08/10 03:31:17;;;;;;;;;5.67;5.00;;;;;19.20;68.71;101391.63;5080241;28;47002;-93
2021/08/10 03:33:44;;;;;;;;;6.67;4.00;;;;;19.29;68.97;101412.00;5083978;27;44723;-92
2021/08/10 03:36:10;;;;;;;;;5.33;5.33;;;;;19.30;68.68;101406.66;5085572;27;44846;-94
2021/08/10 03:38:39;;;;;;;;;6.33;5.00;;;;;19.14;67.62;101375.66;5082505;28;44865;-91
2021/08/10 03:41:09;;;;;;;;;6.00;4.67;;;;;19.23;68.22;101396.94;5082369;27;45589;-93
2021/08/10 03:43:36;;;;;;;;;5.67;4.33;;;;;19.12;68.84;101373.00;5084412;27;44844;-92
2021/08/10 03:46:01;;;;;;;;;6.33;5.33;;;;;19.12;68.91;101382.78;5085051;27;44690;-92
2021/08/10 03:48:34;;;;;;;;;7.67;5.00;;;;;19.05;69.29;101365.97;5085737;27;44716;-93
2021/08/10 03:51:02;;;;;;;;;6.33;5.00;;;;;19.14;69.07;101389.00;5084317;27;47168;-92
2021/08/10 03:53:29;;;;;;;;;7.00;6.00;;;;;19.07;69.27;101388.16;5084692;27;44665;-92
2021/08/10 03:55:55;;;;;;;;;6.00;5.00;;;;;19.14;69.55;101386.31;5084484;27;44782;-91
2021/08/10 03:58:22;;;;;;;;;6.00;4.67;;;;;19.08;69.05;101382.78;5085102;27;44791;-92
2021/08/10 04:00:53;;;;;;;;;7.33;4.67;;;;;19.07;69.83;101385.47;5084199;27;48415;-92
2021/08/10 04:03:19;;;;;;;;;4.33;4.33;;;;;19.21;69.24;101420.94;5070633;27;45551;-94
2021/08/10 04:05:49;;;;;;;;;5.00;5.00;;;;;19.06;69.13;101391.69;5066606;28;45493;-92
2021/08/10 04:08:15;;;;;;;;;8.00;5.33;;;;;19.20;69.43;101419.19;5061759;28;45498;-91
2021/08/10 04:10:44;;;;;;;;;8.00;5.00;;;;;19.18;69.71;101414.75;5058947;28;48311;-92
2021/08/10 04:13:10;;;;;;;;;3.00;2.00;;;;;19.15;69.40;101412.09;5058781;28;45243;-94
2021/08/10 04:15:47;;;;;;;;;3.67;3.67;;;;;19.03;70.32;101389.97;5059370;28;45444;-94
2021/08/10 04:18:18;;;;;;;;;7.67;3.67;;;;;19.18;69.64;101414.75;5066684;28;45446;-93
2021/08/10 04:20:55;;;;;;;;;3.67;3.67;;;;;19.14;69.33;101415.63;5058320;28;47145;-91
2021/08/10 04:23:21;;;;;;;;;6.00;5.00;;;;;19.02;69.42;101393.50;5058232;28;45457;-92
2021/08/10 04:25:50;;;;;;;;;5.67;4.67;;;;;19.07;69.12;101409.47;5059808;28;45428;-93
2021/08/10 04:28:20;;;;;;;;;7.33;4.33;;;;;19.02;69.38;101404.16;5060053;28;45314;-93
2021/08/10 04:30:46;;;;;;;;;4.67;4.67;;;;;19.00;69.25;101403.28;5061352;28;47668;-92
2021/08/10 04:33:14;;;;;;;;;4.33;4.33;;;;;19.14;69.43;101424.50;5086458;27;44836;-94
2021/08/10 04:35:42;;;;;;;;;4.00;4.00;;;;;19.08;69.55;101420.09;5086090;27;44748;-92
2021/08/10 04:38:10;;;;;;;;;5.00;4.00;;;;;19.07;69.82;101422.78;5086385;27;44765;-91
2021/08/10 04:40:36;;;;;;;;;5.33;5.33;;;;;18.96;70.02;101405.09;5085354;27;47153;-92
2021/08/10 04:43:05;;;;;;;;;5.33;4.67;;;;;18.97;69.61;101408.66;5085958;27;44821;-91
2021/08/10 04:45:31;;;;;;;;;7.33;7.00;;;;;19.05;70.15;101420.13;5086201;27;44669;-92
2021/08/10 04:48:04;;;;;;;;;5.00;5.00;;;;;18.95;69.78;101405.13;5087139;27;44785;-92
2021/08/10 04:50:29;;;;;;;;;5.33;3.67;;;;;19.02;69.82;101420.16;5086165;27;47465;-92
2021/08/10 04:52:57;;;;;;;;;7.67;6.00;;;;;18.96;69.75;101404.22;5086653;27;44788;-94
2021/08/10 04:55:24;;;;;;;;;5.33;4.00;;;;;19.02;70.13;101430.81;5067336;27;45489;-92
2021/08/10 04:57:52;;;;;;;;;6.33;5.67;;;;;19.04;70.04;101428.13;5057877;28;45497;-93
2021/08/10 05:00:18;;;;;;;;;7.67;6.67;;;;;18.94;69.28;101413.97;5057723;28;47192;-93
2021/08/10 05:02:43;;;;;;;;;6.33;5.67;;;;;18.96;69.76;101414.84;5068100;28;45397;-90
2021/08/10 05:05:09;;;;;;;;;8.00;6.00;;;;;19.02;69.82;101427.25;5075007;28;45358;-91
2021/08/10 05:07:35;;;;;;;;;9.67;5.33;;;;;18.96;70.19;101417.53;5066587;28;45275;-91
2021/08/10 05:10:02;;;;;;;;;4.00;4.00;;;;;19.04;69.95;101442.34;5060437;28;46933;-81
2021/08/10 05:12:27;;;;;;;;;7.67;5.33;;;;;19.09;69.71;101436.97;5058405;28;45292;-81
2021/08/10 05:14:52;;;;;;;;;6.67;4.00;;;;;19.08;69.66;101437.84;5059605;28;45289;-81
2021/08/10 05:17:18;;;;;;;;;5.67;5.67;;;;;19.10;69.45;101441.41;5060066;28;45368;-81
2021/08/10 05:19:43;;;;;;;;;6.33;5.00;;;;;19.08;69.30;101436.09;5059380;28;45421;-81
2021/08/10 05:22:09;;;;;;;;;5.00;5.00;;;;;19.09;69.89;101437.88;5059707;28;45303;-82
2021/08/10 05:24:34;;;;;;;;;8.67;5.33;;;;;19.08;69.39;101446.75;5059590;28;45402;-81
2021/08/10 05:26:59;;;;;;;;;8.00;5.33;;;;;19.08;69.69;101448.53;5059760;28;45488;-82
2021/08/10 05:29:25;;;;;;;;;8.33;6.00;;;;;19.08;69.89;101460.06;5059111;28;45546;-82
2021/08/10 05:31:50;;;;;;;;;6.33;5.33;;;;;19.07;70.05;101446.75;5058850;28;45456;-82
2021/08/10 05:34:15;;;;;;;;;6.33;6.33;;;;;19.07;69.90;101450.31;5059745;28;45348;-81
2021/08/10 05:36:41;;;;;;;;;6.67;5.00;;;;;19.04;69.84;101455.66;5059627;28;45382;-81
2021/08/10 05:39:06;;;;;;;;;5.00;3.67;;;;;19.04;69.97;101449.44;5059230;28;46135;-81
2021/08/10 05:41:32;;;;;;;;;5.33;4.33;;;;;19.04;70.20;101453.00;5058993;28;45378;-81
2021/08/10 05:43:57;;;;;;;;;7.00;7.00;;;;;19.01;69.99;101450.38;5059370;28;45468;-82
2021/08/10 05:46:23;;;;;;;;;6.67;6.00;;;;;18.98;69.60;101450.38;5059307;28;45403;-86
2021/08/10 05:48:48;;;;;;;;;7.33;6.00;;;;;18.97;70.23;101440.63;5059444;28;48015;-88
2021/08/10 05:51:13;;;;;;;;;6.67;6.33;;;;;18.93;70.54;101438.88;5060923;28;45387;-87
2021/08/10 05:53:39;;;;;;;;;6.00;6.00;;;;;18.97;70.73;101437.97;5060702;28;45489;-89
2021/08/10 05:56:05;;;;;;;;;8.33;5.67;;;;;19.00;71.04;101443.25;5061219;28;45316;-86
2021/08/10 05:58:30;;;;;;;;;6.00;6.00;;;;;18.96;70.67;101446.84;5060637;28;46141;-87
2021/08/10 06:00:56;;;;;;;;;5.67;5.67;;;;;19.03;70.78;101448.56;5059417;28;46039;-85
2021/08/10 06:03:21;;;;;;;;;7.67;6.33;;;;;18.98;70.72;101435.28;5060091;28;45339;-89
2021/08/10 06:05:46;;;;;;;;;7.67;6.00;;;;;19.06;71.13;101439.66;5060853;28;45383;-86
2021/08/10 06:08:12;;;;;;;;;9.00;7.00;;;;;19.03;71.23;101440.59;5060836;28;45388;-87
2021/08/10 06:10:38;;;;;;;;;5.00;5.00;;;;;19.04;71.19;101447.66;5060531;28;45272;-88
2021/08/10 06:13:03;;;;;;;;;6.00;5.67;;;;;19.05;71.01;101449.44;5061438;28;45374;-86
2021/08/10 06:15:29;;;;;;;;;5.67;5.67;;;;;19.07;70.47;101458.31;5058891;28;45323;-88
2021/08/10 06:17:55;;;;;;;;;7.00;4.67;;;;;19.08;70.81;101462.72;5058081;28;47802;-86
2021/08/10 06:20:21;;;;;;;;;7.00;6.67;;;;;19.07;70.85;101455.66;5044805;28;45461;-87
2021/08/10 06:22:47;;;;;;;;;4.33;4.33;;;;;19.01;71.06;101445.03;5059982;28;45350;-88
2021/08/10 06:25:12;;;;;;;;;6.33;4.00;;;;;19.07;70.90;101460.09;5061216;28;45335;-87
2021/08/10 06:27:38;;;;;;;;;6.00;4.00;;;;;19.05;70.90;101446.78;5060089;28;45438;-87
2021/08/10 06:30:08;;;;;;;;;5.33;3.33;;;;;19.07;70.30;101450.31;5061206;28;45546;-87
2021/08/10 06:32:34;;;;;;;;;7.67;6.67;;;;;19.08;70.78;101448.53;5059394;28;45263;-86
2021/08/10 06:34:59;;;;;;;;;5.33;5.33;;;;;19.08;70.69;101452.06;5060418;28;45210;-88
2021/08/10 06:37:25;;;;;;;;;6.67;5.00;;;;;19.09;70.72;101459.19;5059870;28;45496;-87
2021/08/10 06:39:50;;;;;;;;;6.00;4.67;;;;;19.09;69.66;101434.31;5059890;28;45478;-88
2021/08/10 06:42:20;;;;;;;;;8.33;4.33;;;;;19.13;69.99;101448.50;5060935;28;45200;-87
2021/08/10 06:44:46;;;;;;;;;6.67;5.33;;;;;19.06;70.37;101437.00;5061349;28;45354;-88
2021/08/10 06:47:12;;;;;;;;;5.00;4.00;;;;;19.04;69.18;101429.00;5061475;28;46286;-89
2021/08/10 06:49:38;;;;;;;;;7.33;6.00;;;;;19.14;69.47;101444.94;5066735;28;45307;-88
2021/08/10 06:52:05;;;;;;;;;8.67;6.00;;;;;19.15;69.97;101444.97;5060802;28;45454;-85
2021/08/10 06:54:31;;;;;;;;;5.67;5.67;;;;;19.12;70.52;101441.41;5060782;28;45431;-86
2021/08/10 06:56:56;;;;;;;;;4.33;3.33;;;;;19.18;69.70;101441.41;5064642;28;45758;-86
2021/08/10 06:59:21;;;;;;;;;5.00;4.00;;;;;19.15;70.05;101436.97;5063833;28;45357;-86
2021/08/10 07:01:47;;;;;;;;;5.33;5.33;;;;;19.23;70.12;101454.69;5063151;28;45287;-86
2021/08/10 07:04:12;;;;;;;;;7.33;5.33;;;;;19.26;70.48;101450.22;5060520;28;45339;-88
2021/08/10 07:06:38;;;;;;;;;7.00;5.00;;;;;19.23;70.36;101444.03;5062287;28;46166;-86
2021/08/10 07:09:05;;;;;;;;;5.33;5.00;;;;;19.27;70.93;101449.31;5060624;28;45459;-86
2021/08/10 07:11:31;;;;;;;;;6.33;3.33;;;;;19.29;69.72;101459.97;5061300;28;45372;-86
2021/08/10 07:13:57;;;;;;;;;7.67;4.00;;;;;19.28;68.82;101455.53;5060103;28;45329;-87
2021/08/10 07:16:23;;;;;;;;;5.00;5.00;;;;;19.30;69.75;101459.06;5059927;28;45488;-85
2021/08/10 07:18:48;;;;;;;;;7.33;6.00;;;;;19.26;69.06;101454.66;5060471;28;45379;-86
2021/08/10 07:21:13;;;;;;;;;5.00;5.00;;;;;19.32;69.38;101462.59;5060081;28;45441;-86
2021/08/10 07:23:39;;;;;;;;;6.00;5.00;;;;;19.35;69.96;101470.59;5060922;28;45303;-87
2021/08/10 07:26:04;;;;;;;;;4.67;4.00;;;;;19.39;68.88;101472.34;5060169;28;45253;-86
2021/08/10 07:28:30;;;;;;;;;5.00;5.00;;;;;19.38;69.16;101461.66;5059562;28;45385;-85
2021/08/10 07:30:55;;;;;;;;;8.00;6.00;;;;;19.42;69.48;101464.31;5059833;28;45411;-86
2021/08/10 07:33:20;;;;;;;;;6.00;4.67;;;;;19.43;69.20;101458.09;5058788;28;45534;-87
2021/08/10 07:35:46;;;;;;;;;6.67;6.00;;;;;19.51;69.96;101468.69;5059862;28;45593;-87
2021/08/10 07:38:11;;;;;;;;;5.00;5.00;;;;;19.56;70.16;101463.31;5059269;28;45525;-87
2021/08/10 07:40:38;;;;;;;;;7.67;5.00;;;;;19.64;69.91;101473.91;5058241;28;45417;-87
2021/08/10 07:43:03;;;;;;;;;5.67;5.00;;;;;19.59;70.35;101454.38;5059868;28;45386;-85
2021/08/10 07:45:29;;;;;;;;;7.00;5.00;;;;;19.56;70.08;101450.84;5059082;28;45362;-89
2021/08/10 07:47:54;;;;;;;;;8.00;6.00;;;;;19.65;69.02;101462.38;5059738;28;45988;-87
2021/08/10 07:50:20;;;;;;;;;7.33;6.00;;;;;19.72;69.38;101469.38;5060360;28;45461;-86
2021/08/10 07:52:47;;;;;;;;;4.00;4.00;;;;;19.75;69.55;101480.06;5060075;28;45427;-86
2021/08/10 07:55:13;;;;;;;;;4.00;4.00;;;;;19.74;68.13;101472.94;5059393;28;45516;-86
2021/08/10 07:57:42;;;;;;;;;4.33;4.33;;;;;19.82;68.73;101480.00;5059838;28;45422;-86
2021/08/10 08:00:08;;;;;;;;;5.33;5.33;;;;;19.84;68.82;101483.53;5060985;28;45474;-86
2021/08/10 08:02:34;;;;;;;;;4.00;3.67;;;;;19.84;68.53;101473.72;5060685;28;45347;-86
2021/08/10 08:04:59;;;;;;;;;5.00;5.00;;;;;19.79;68.50;101460.44;5060886;28;45920;-87
2021/08/10 08:07:24;;;;;;;;;4.67;4.67;;;;;19.87;69.03;101472.81;5060167;28;45341;-88
2021/08/10 08:09:51;;;;;;;;;4.00;4.00;;;;;19.92;69.14;101487.00;5060181;28;45307;-88
2021/08/10 08:12:16;;;;;;;;;5.00;5.00;;;;;19.90;69.68;101478.13;5059690;28;45256;-87
2021/08/10 08:14:44;;;;;;;;;5.33;4.33;;;;;19.93;69.08;101472.75;5059258;28;46282;-87
2021/08/10 08:17:10;;;;;;;;;4.67;4.33;;;;;19.93;68.88;101461.19;5061484;28;45220;-89
2021/08/10 08:19:35;;;;;;;;;4.00;4.00;;;;;20.02;68.61;101467.34;5062873;28;45476;-87
2021/08/10 08:22:01;;;;;;;;;6.00;5.00;;;;;20.09;69.18;101472.63;5058534;28;45384;-86
2021/08/10 08:24:26;;;;;;;;;6.67;5.67;;;;;20.15;67.88;101480.56;5056637;28;47293;-87
2021/08/10 08:26:52;;;;;;;;;6.67;5.00;;;;;20.20;68.79;101472.53;5057612;28;45587;-87
2021/08/10 08:29:17;;;;;;;;;5.33;4.33;;;;;20.28;68.10;101485.78;5058751;28;45408;-86
2021/08/10 08:31:43;;;;;;;;;4.33;4.33;;;;;20.24;68.18;101469.78;5058813;28;45561;-87
2021/08/10 08:34:08;;;;;;;;;6.33;5.00;;;;;20.34;67.55;101488.38;5058607;28;46390;-88
2021/08/10 08:36:33;;;;;;;;;7.00;7.00;;;;;20.37;67.32;101480.31;5058169;28;45373;-88
2021/08/10 08:38:59;;;;;;;;;8.33;6.67;;;;;20.39;68.23;101469.63;5059129;28;45422;-87
2021/08/10 08:41:25;;;;;;;;;6.67;5.67;;;;;20.40;68.26;101466.06;5059037;28;45408;-87
2021/08/10 08:43:50;;;;;;;;;5.00;5.00;;;;;20.43;67.93;101466.88;5059678;28;45526;-87
2021/08/10 08:46:16;;;;;;;;;5.00;5.00;;;;;20.54;68.11;101479.25;5057884;28;45317;-88
2021/08/10 08:48:45;;;;;;;;;5.33;4.00;;;;;20.55;67.66;101463.19;5061833;28;45549;-86
2021/08/10 08:51:11;;;;;;;;;9.00;6.67;;;;;20.61;66.97;101464.91;5062052;28;45380;-87
2021/08/10 08:53:43;;;;;;;;;4.67;4.00;;;;;20.73;66.75;101469.19;5060638;28;45338;-87
2021/08/10 08:56:09;;;;;;;;;5.00;4.00;;;;;20.80;67.81;101470.00;5061334;28;45311;-88
2021/08/10 08:58:34;;;;;;;;;6.67;5.33;;;;;20.90;67.18;101470.75;5061680;28;45372;-87
2021/08/10 09:01:00;;;;;;;;;8.67;5.00;;;;;20.93;66.28;101460.91;5061588;28;45161;-86
2021/08/10 09:03:25;;;;;;;;;6.00;4.00;;;;;21.15;67.16;101471.28;5062159;28;45429;-86
2021/08/10 09:05:50;;;;;;;;;5.00;5.00;;;;;21.35;67.17;101456.75;5060683;28;45370;-86
2021/08/10 09:08:33;;;;;;;;;7.00;5.33;;;;;21.75;66.27;101471.22;5061302;28;45648;-86
2021/08/10 09:11:01;;;;;;;;;5.67;4.00;;;;;21.94;66.58;101470.03;5060532;28;45342;-87
2021/08/10 09:13:27;;;;;;;;;5.00;5.00;;;;;22.09;65.77;101461.72;5061443;28;47462;-87
2021/08/10 09:15:53;;;;;;;;;4.00;4.00;;;;;22.32;65.71;101467.50;5062685;28;45385;-88
2021/08/10 09:18:21;;;;;;;;;4.00;4.00;;;;;22.50;65.56;101468.94;5061238;28;45295;-85
2021/08/10 09:21:13;;;;;;;;;6.00;5.00;;;;;22.66;64.52;101465.94;5060510;28;45566;-86
2021/08/10 09:23:51;;;;;;;;;4.67;3.67;;;;;22.61;62.59;101473.19;5060431;28;46448;-86
2021/08/10 09:26:35;;;;;;;;;5.00;4.00;;;;;22.62;60.79;101469.59;5060359;28;45383;-85
2021/08/10 09:29:02;;;;;;;;;3.00;3.00;;;;;22.73;62.57;101469.38;5059910;28;45420;-85
2021/08/10 09:31:45;;;;;;;;;5.33;4.00;;;;;22.99;61.17;101473.28;5060114;28;45663;-85
2021/08/10 09:34:18;;;;;;;;;4.00;4.00;;;;;23.30;60.79;101468.97;5059779;28;46197;-87
2021/08/10 09:36:44;;;;;;;;;4.00;4.00;;;;;23.66;61.38;101470.81;5060224;28;45381;-85
2021/08/10 09:39:10;;;;;;;;;4.67;3.33;;;;;23.91;60.21;101446.88;5059916;28;45327;-86
2021/08/10 09:41:36;;;;;;;;;6.33;3.00;;;;;24.36;58.96;101460.00;5059916;28;45339;-84
2021/08/10 09:44:18;;;;;;;;;3.67;3.33;;;;;24.68;59.56;101443.81;5059654;28;46342;-84
2021/08/10 09:46:50;;;;;;;;;8.00;5.00;;;;;25.06;57.47;101460.59;5059586;28;45415;-85
2021/08/10 09:49:18;;;;;;;;;4.00;4.00;;;;;25.40;57.70;101461.25;5060099;28;45449;-84
2021/08/10 09:51:48;;;;;;;;;4.33;3.33;;;;;25.72;55.91;101462.94;5060494;28;45417;-85
2021/08/10 09:54:14;;;;;;;;;5.33;3.67;;;;;26.00;55.84;101449.34;5059854;28;45571;-86
2021/08/10 09:56:43;;;;;;;;;2.33;2.33;;;;;26.34;55.25;101459.81;5058657;28;45268;-86
2021/08/10 09:59:09;;;;;;;;;4.33;3.00;;;;;26.59;53.63;101470.56;5059131;28;45368;-86
2021/08/10 10:01:38;;;;;;;;;3.00;3.00;;;;;26.81;53.57;101452.66;5061395;28;45540;-85
2021/08/10 10:04:13;;;;;;;;;2.67;2.67;;;;;26.98;52.94;101460.06;5060212;28;45358;-85
2021/08/10 10:06:40;;;;;;;;;3.00;3.00;;;;;27.10;52.22;101466.81;5059486;28;45317;-83
2021/08/10 10:09:05;;;;;;;;;4.00;3.67;;;;;27.23;50.80;101463.59;5059719;28;45456;-85
2021/08/10 10:11:34;;;;;;;;;4.00;4.00;;;;;27.46;50.71;101464.44;5060336;28;45276;-84
2021/08/10 10:14:01;;;;;;;;;3.33;2.33;;;;;27.64;50.28;101466.34;5060201;28;46373;-86
2021/08/10 10:16:28;;;;;;;;;3.00;2.67;;;;;27.73;49.19;101473.16;5058473;28;45394;-84
2021/08/10 10:18:55;;;;;;;;;5.00;3.00;;;;;27.77;49.69;101457.78;5059811;28;45267;-85
2021/08/10 10:21:25;;;;;;;;;4.00;4.00;;;;;27.92;49.63;101472.38;5060101;28;45418;-86
2021/08/10 10:23:53;;;;;;;;;3.00;3.00;;;;;27.94;48.74;101467.78;5057789;28;48613;-86
2021/08/10 10:26:21;;;;;;;;;5.00;5.00;;;;;27.89;49.07;101472.53;5058295;28;46048;-86
2021/08/10 10:28:47;;;;;;;;;5.33;3.33;;;;;27.80;49.75;101460.31;5058544;28;45401;-85
2021/08/10 10:31:13;;;;;;;;;3.67;2.33;;;;;27.71;48.49;101463.41;5059748;28;45497;-86
2021/08/10 10:33:40;;;;;;;;;3.67;2.00;;;;;27.77;48.39;101464.97;5059653;28;46249;-85
2021/08/10 10:36:05;;;;;;;;;2.33;2.33;;;;;27.76;47.35;101461.41;5059138;28;45457;-86
2021/08/10 10:38:31;;;;;;;;;5.00;3.00;;;;;27.74;47.41;101468.66;5059282;28;45331;-85
2021/08/10 10:40:59;;;;;;;;;5.33;4.33;;;;;27.76;47.25;101458.69;5059438;28;45272;-85
2021/08/10 10:43:29;;;;;;;;;3.00;3.00;;;;;27.66;48.28;101441.13;5057493;28;48470;-85
2021/08/10 10:45:55;;;;;;;;;4.67;2.00;;;;;27.70;47.80;101457.13;5059362;28;45562;-85
2021/08/10 10:48:26;;;;;;;;;4.00;4.00;;;;;27.68;47.56;101450.03;5060314;28;45236;-85
2021/08/10 10:51:03;;;;;;;;;4.00;3.00;;;;;27.59;46.83;101449.47;5061417;28;45325;-85
2021/08/10 10:53:29;;;;;;;;;4.00;4.00;;;;;27.40;47.37;101436.78;5062467;28;45519;-85
2021/08/10 10:55:55;;;;;;;;;5.00;2.00;;;;;27.25;47.21;101438.31;5063747;28;45402;-85
2021/08/10 10:58:25;;;;;;;;;5.33;4.00;;;;;27.11;49.07;101438.00;5072820;28;45227;-86
2021/08/10 11:01:31;;;;;;;;;5.00;4.00;;;;;26.92;48.20;101452.22;5076777;28;45310;-85
2021/08/10 11:04:08;;;;;;;;;4.00;4.00;;;;;26.75;47.71;101458.28;5051255;28;45573;-86
2021/08/10 11:06:49;;;;;;;;;3.00;3.00;;;;;26.55;47.59;101443.78;5061854;28;45303;-86
2021/08/10 11:09:36;;;;;;;;;4.00;3.00;;;;;26.42;48.94;101451.47;5063242;28;45360;-86
2021/08/10 11:12:02;;;;;;;;;3.67;2.33;;;;;26.27;47.89;101436.75;5063135;28;45529;-85
2021/08/10 11:14:36;;;;;;;;;2.00;2.00;;;;;26.22;48.98;101443.19;5060708;28;45355;-87
2021/08/10 11:17:08;;;;;;;;;3.67;2.67;;;;;26.14;47.42;101453.38;5059827;28;45325;-87
2021/08/10 11:19:38;;;;;;;;;3.00;3.00;;;;;26.05;48.27;101448.31;5060606;28;45580;-87
2021/08/10 11:22:15;;;;;;;;;3.00;3.00;;;;;25.97;47.80;101441.41;5059868;28;45344;-87
2021/08/10 11:24:45;;;;;;;;;3.00;3.00;;;;;25.87;48.47;101438.16;5058234;28;45493;-86
2021/08/10 11:27:31;;;;;;;;;2.67;2.67;;;;;25.88;48.63;101453.38;5058868;28;45212;-86
2021/08/10 11:29:58;;;;;;;;;4.00;2.33;;;;;25.84;48.69;101448.16;5058511;28;45497;-86
2021/08/10 11:32:44;;;;;;;;;3.00;3.00;;;;;25.86;47.61;101451.69;5058809;28;45742;-86